sensor_id;sensor_type;location;lat;lon;timestamp;pressure;altitude;pressure_sealevel;temperature;humidity
26563;BME280;14217;50.986;5.826;2022-12-07T00:04:48;101170.13;;;16.50;42.15
26563;BME280;14217;50.986;5.826;2022-12-07T00:09:50;101175.03;;;16.62;41.80
26563;BME280;14217;50.986;5.826;2022-12-07T00:14:52;101165.97;;;16.41;42.38
26563;BME280;14217;50.986;5.826;2022-12-07T00:19:54;101153.91;;;16.61;41.82
26563;BME280;14217;50.986;5.826;2022-12-07T00:24:56;101154.66;;;16.66;41.56
26563;BME280;14217;50.986;5.826;2022-12-07T00:29:58;101148.63;;;16.61;41.86
26563;BME280;14217;50.986;5.826;2022-12-07T00:35:00;101149.59;;;16.58;42.04
26563;BME280;14217;50.986;5.826;2022-12-07T00:40:02;101140.75;;;16.59;41.92
26563;BME280;14217;50.986;5.826;2022-12-07T00:45:04;101148.00;;;16.53;41.79
26563;BME280;14217;50.986;5.826;2022-12-07T00:50:07;101147.13;;;16.52;41.87
26563;BME280;14217;50.986;5.826;2022-12-07T00:55:09;101153.81;;;16.64;41.87
26563;BME280;14217;50.986;5.826;2022-12-07T01:00:11;101145.94;;;16.62;41.87
26563;BME280;14217;50.986;5.826;2022-12-07T01:05:13;101145.88;;;16.64;41.58
26563;BME280;14217;50.986;5.826;2022-12-07T01:10:15;101147.28;;;16.48;42.29
26563;BME280;14217;50.986;5.826;2022-12-07T01:15:17;101148.91;;;16.52;42.01
26563;BME280;14217;50.986;5.826;2022-12-07T01:20:19;101147.63;;;16.37;42.53
26563;BME280;14217;50.986;5.826;2022-12-07T01:25:21;101154.41;;;16.45;42.55
26563;BME280;14217;50.986;5.826;2022-12-07T01:30:23;101151.03;;;16.69;42.04
26563;BME280;14217;50.986;5.826;2022-12-07T01:35:25;101147.56;;;16.66;41.90
26563;BME280;14217;50.986;5.826;2022-12-07T01:40:27;101150.09;;;16.70;41.56
26563;BME280;14217;50.986;5.826;2022-12-07T01:45:42;101152.91;;;16.65;41.77
26563;BME280;14217;50.986;5.826;2022-12-07T01:50:45;101151.06;;;16.67;41.86
26563;BME280;14217;50.986;5.826;2022-12-07T01:55:50;101148.56;;;16.62;41.87
26563;BME280;14217;50.986;5.826;2022-12-07T02:00:53;101146.16;;;16.55;41.94
26563;BME280;14217;50.986;5.826;2022-12-07T02:05:56;101142.63;;;16.56;42.01
26563;BME280;14217;50.986;5.826;2022-12-07T02:11:03;101134.38;;;16.65;41.52
26563;BME280;14217;50.986;5.826;2022-12-07T02:16:34;101127.09;;;16.72;41.79
26563;BME280;14217;50.986;5.826;2022-12-07T02:27:37;101135.38;;;16.61;42.04
26563;BME280;14217;50.986;5.826;2022-12-07T02:38:03;101134.22;;;16.70;41.81
26563;BME280;14217;50.986;5.826;2022-12-07T02:43:27;101136.22;;;16.63;41.96
26563;BME280;14217;50.986;5.826;2022-12-07T02:48:31;101122.91;;;16.66;41.82
26563;BME280;14217;50.986;5.826;2022-12-07T02:53:37;101132.31;;;16.75;41.55
26563;BME280;14217;50.986;5.826;2022-12-07T03:04:19;101135.75;;;16.78;41.56
26563;BME280;14217;50.986;5.826;2022-12-07T03:14:41;101136.09;;;16.67;41.67
26563;BME280;14217;50.986;5.826;2022-12-07T03:19:46;101135.19;;;16.67;41.64
26563;BME280;14217;50.986;5.826;2022-12-07T03:24:53;101134.00;;;16.77;41.65
26563;BME280;14217;50.986;5.826;2022-12-07T03:30:03;101132.50;;;16.69;41.63
26563;BME280;14217;50.986;5.826;2022-12-07T03:35:16;101136.84;;;16.71;41.76
26563;BME280;14217;50.986;5.826;2022-12-07T03:40:54;101138.31;;;16.81;41.55
26563;BME280;14217;50.986;5.826;2022-12-07T03:51:33;101128.00;;;16.72;41.88
26563;BME280;14217;50.986;5.826;2022-12-07T03:56:40;101130.63;;;16.72;41.83
26563;BME280;14217;50.986;5.826;2022-12-07T04:01:44;101126.16;;;16.74;41.52
26563;BME280;14217;50.986;5.826;2022-12-07T04:06:53;101118.94;;;16.79;41.63
26563;BME280;14217;50.986;5.826;2022-12-07T04:11:55;101123.25;;;16.83;41.47
26563;BME280;14217;50.986;5.826;2022-12-07T04:16:58;101127.91;;;16.74;41.52
26563;BME280;14217;50.986;5.826;2022-12-07T04:22:02;101113.50;;;16.84;41.39
26563;BME280;14217;50.986;5.826;2022-12-07T04:27:04;101119.84;;;16.78;41.66
26563;BME280;14217;50.986;5.826;2022-12-07T04:32:06;101120.13;;;16.69;41.80
26563;BME280;14217;50.986;5.826;2022-12-07T04:37:09;101115.47;;;16.77;41.56
26563;BME280;14217;50.986;5.826;2022-12-07T04:42:11;101124.91;;;16.86;41.25
26563;BME280;14217;50.986;5.826;2022-12-07T04:47:14;101123.25;;;16.83;41.48
26563;BME280;14217;50.986;5.826;2022-12-07T04:52:16;101120.72;;;16.80;41.39
26563;BME280;14217;50.986;5.826;2022-12-07T04:57:18;101113.59;;;16.82;41.65
26563;BME280;14217;50.986;5.826;2022-12-07T05:02:20;101110.16;;;16.77;41.57
26563;BME280;14217;50.986;5.826;2022-12-07T05:07:23;101114.03;;;16.67;41.83
26563;BME280;14217;50.986;5.826;2022-12-07T05:12:24;101114.50;;;16.80;41.44
26563;BME280;14217;50.986;5.826;2022-12-07T05:17:26;101106.47;;;16.84;41.69
26563;BME280;14217;50.986;5.826;2022-12-07T05:22:28;101111.75;;;16.84;41.31
26563;BME280;14217;50.986;5.826;2022-12-07T05:27:31;101117.88;;;16.86;41.34
26563;BME280;14217;50.986;5.826;2022-12-07T05:32:33;101114.50;;;16.80;41.51
26563;BME280;14217;50.986;5.826;2022-12-07T05:37:35;101118.88;;;16.82;41.65
26563;BME280;14217;50.986;5.826;2022-12-07T05:42:37;101115.31;;;16.83;41.47
26563;BME280;14217;50.986;5.826;2022-12-07T05:47:39;101110.13;;;16.80;41.39
26563;BME280;14217;50.986;5.826;2022-12-07T05:52:41;101104.72;;;16.83;41.63
26563;BME280;14217;50.986;5.826;2022-12-07T05:57:43;101110.03;;;16.82;41.35
26563;BME280;14217;50.986;5.826;2022-12-07T06:03:05;101109.91;;;16.86;41.38
26563;BME280;14217;50.986;5.826;2022-12-07T06:08:07;101105.66;;;16.82;41.67
26563;BME280;14217;50.986;5.826;2022-12-07T06:13:09;101108.22;;;16.84;41.49
26563;BME280;14217;50.986;5.826;2022-12-07T06:18:11;101105.66;;;16.82;41.25
26563;BME280;14217;50.986;5.826;2022-12-07T06:23:13;101111.09;;;16.76;41.67
26563;BME280;14217;50.986;5.826;2022-12-07T06:28:15;101113.63;;;16.81;41.55
26563;BME280;14217;50.986;5.826;2022-12-07T06:33:17;101115.41;;;16.80;41.41
26563;BME280;14217;50.986;5.826;2022-12-07T06:38:19;101113.59;;;16.82;41.45
26563;BME280;14217;50.986;5.826;2022-12-07T06:43:21;101118.66;;;16.89;41.32
26563;BME280;14217;50.986;5.826;2022-12-07T06:48:23;101112.69;;;16.82;41.52
26563;BME280;14217;50.986;5.826;2022-12-07T06:53:25;101111.91;;;16.78;41.79
26563;BME280;14217;50.986;5.826;2022-12-07T06:58:27;101108.19;;;16.85;41.27
26563;BME280;14217;50.986;5.826;2022-12-07T07:03:29;101112.63;;;16.85;41.34
26563;BME280;14217;50.986;5.826;2022-12-07T07:08:31;101108.00;;;16.90;41.21
26563;BME280;14217;50.986;5.826;2022-12-07T07:13:33;101112.00;;;16.75;41.68
26563;BME280;14217;50.986;5.826;2022-12-07T07:18:35;101111.63;;;16.88;41.45
26563;BME280;14217;50.986;5.826;2022-12-07T07:23:38;101122.50;;;16.78;41.57
26563;BME280;14217;50.986;5.826;2022-12-07T07:28:40;101118.97;;;16.78;41.79
26563;BME280;14217;50.986;5.826;2022-12-07T07:33:42;101118.06;;;16.79;41.75
26563;BME280;14217;50.986;5.826;2022-12-07T07:38:43;101117.03;;;16.84;41.49
26563;BME280;14217;50.986;5.826;2022-12-07T07:43:45;101111.53;;;16.91;41.49
26563;BME280;14217;50.986;5.826;2022-12-07T07:48:47;101121.41;;;16.85;41.58
26563;BME280;14217;50.986;5.826;2022-12-07T07:53:49;101116.28;;;16.79;41.50
26563;BME280;14217;50.986;5.826;2022-12-07T07:58:52;101129.34;;;16.85;41.66
26563;BME280;14217;50.986;5.826;2022-12-07T08:03:54;101135.56;;;16.55;44.50
26563;BME280;14217;50.986;5.826;2022-12-07T08:08:56;101141.38;;;16.67;44.34
26563;BME280;14217;50.986;5.826;2022-12-07T08:13:59;101128.19;;;16.66;44.30
26563;BME280;14217;50.986;5.826;2022-12-07T08:19:01;101145.06;;;16.62;43.88
26563;BME280;14217;50.986;5.826;2022-12-07T08:24:05;101139.59;;;16.68;43.77
26563;BME280;14217;50.986;5.826;2022-12-07T08:29:08;101136.75;;;16.46;44.26
26563;BME280;14217;50.986;5.826;2022-12-07T08:34:10;101137.22;;;16.59;43.63
26563;BME280;14217;50.986;5.826;2022-12-07T08:39:12;101141.38;;;16.67;43.48
26563;BME280;14217;50.986;5.826;2022-12-07T08:44:34;101148.38;;;16.69;43.06
26563;BME280;14217;50.986;5.826;2022-12-07T08:49:41;101150.50;;;16.57;43.07
26563;BME280;14217;50.986;5.826;2022-12-07T08:54:45;101146.03;;;16.59;43.11
26563;BME280;14217;50.986;5.826;2022-12-07T08:59:47;101143.63;;;16.52;43.32
26563;BME280;14217;50.986;5.826;2022-12-07T09:04:49;101140.88;;;16.55;42.86
26563;BME280;14217;50.986;5.826;2022-12-07T09:09:51;101146.13;;;16.56;42.86
26563;BME280;14217;50.986;5.826;2022-12-07T09:14:53;101152.22;;;16.58;42.59
26563;BME280;14217;50.986;5.826;2022-12-07T09:19:55;101158.53;;;16.54;42.51
26563;BME280;14217;50.986;5.826;2022-12-07T09:24:58;101154.88;;;16.58;42.35
26563;BME280;14217;50.986;5.826;2022-12-07T09:30:00;101158.44;;;16.57;42.46
26563;BME280;14217;50.986;5.826;2022-12-07T09:35:03;101154.84;;;16.60;42.19
26563;BME280;14217;50.986;5.826;2022-12-07T09:40:05;101156.91;;;16.50;43.35
26563;BME280;14217;50.986;5.826;2022-12-07T09:45:14;101154.50;;;16.71;42.56
26563;BME280;14217;50.986;5.826;2022-12-07T09:50:23;101153.78;;;16.65;42.75
26563;BME280;14217;50.986;5.826;2022-12-07T09:55:28;101150.44;;;16.59;42.71
26563;BME280;14217;50.986;5.826;2022-12-07T10:00:31;101140.28;;;16.73;42.58
26563;BME280;14217;50.986;5.826;2022-12-07T10:05:39;101142.63;;;16.56;43.55
26563;BME280;14217;50.986;5.826;2022-12-07T10:10:50;101139.84;;;16.59;45.34
26563;BME280;14217;50.986;5.826;2022-12-07T10:15:55;101125.16;;;16.50;46.41
26563;BME280;14217;50.986;5.826;2022-12-07T10:21:17;101125.22;;;16.49;46.51
26563;BME280;14217;50.986;5.826;2022-12-07T10:37:22;101109.53;;;16.42;47.38
26563;BME280;14217;50.986;5.826;2022-12-07T10:42:29;101103.44;;;16.40;46.88
26563;BME280;14217;50.986;5.826;2022-12-07T10:47:59;101098.22;;;16.37;46.67
26563;BME280;14217;50.986;5.826;2022-12-07T11:04:36;101075.16;;;16.42;45.04
26563;BME280;14217;50.986;5.826;2022-12-07T11:09:55;101073.34;;;16.44;45.14
26563;BME280;14217;50.986;5.826;2022-12-07T11:15:16;101061.94;;;16.42;44.66
26563;BME280;14217;50.986;5.826;2022-12-07T11:26:18;101045.19;;;16.42;44.65
26563;BME280;14217;50.986;5.826;2022-12-07T11:37:15;101046.16;;;16.39;44.66
26563;BME280;14217;50.986;5.826;2022-12-07T11:42:41;101042.69;;;16.37;44.68
26563;BME280;14217;50.986;5.826;2022-12-07T11:47:47;101037.31;;;16.40;44.58
26563;BME280;14217;50.986;5.826;2022-12-07T11:53:01;101039.81;;;16.45;44.41
26563;BME280;14217;50.986;5.826;2022-12-07T12:03:30;101030.13;;;16.44;44.33
26563;BME280;14217;50.986;5.826;2022-12-07T12:08:42;101016.28;;;16.36;44.42
26563;BME280;14217;50.986;5.826;2022-12-07T12:20:23;101007.09;;;16.48;43.83
26563;BME280;14217;50.986;5.826;2022-12-07T12:25:30;101012.19;;;16.54;43.68
26563;BME280;14217;50.986;5.826;2022-12-07T12:30:39;101005.09;;;16.54;43.71
26563;BME280;14217;50.986;5.826;2022-12-07T12:35:41;101004.06;;;16.60;43.43
26563;BME280;14217;50.986;5.826;2022-12-07T12:40:44;100996.28;;;16.55;43.49
26563;BME280;14217;50.986;5.826;2022-12-07T12:51:40;100986.19;;;16.66;43.06
26563;BME280;14217;50.986;5.826;2022-12-07T12:56:51;100984.09;;;16.50;43.84
26563;BME280;14217;50.986;5.826;2022-12-07T13:23:31;100965.69;;;16.72;43.71
26563;BME280;14217;50.986;5.826;2022-12-07T13:28:40;100956.69;;;16.77;43.34
26563;BME280;14217;50.986;5.826;2022-12-07T13:33:44;100942.69;;;16.74;43.41
26563;BME280;14217;50.986;5.826;2022-12-07T13:39:01;100936.38;;;16.78;43.37
26563;BME280;14217;50.986;5.826;2022-12-07T13:44:14;100946.50;;;16.66;44.07
26563;BME280;14217;50.986;5.826;2022-12-07T13:49:28;100930.50;;;16.70;44.07
26563;BME280;14217;50.986;5.826;2022-12-07T13:54:30;100922.25;;;16.79;43.88
26563;BME280;14217;50.986;5.826;2022-12-07T13:59:32;100930.50;;;16.70;44.19
26563;BME280;14217;50.986;5.826;2022-12-07T14:04:36;100925.06;;;16.74;44.53
26563;BME280;14217;50.986;5.826;2022-12-07T14:09:39;100925.81;;;16.53;44.99
26563;BME280;14217;50.986;5.826;2022-12-07T14:14:47;100910.47;;;16.62;44.88
26563;BME280;14217;50.986;5.826;2022-12-07T14:19:54;100913.25;;;16.59;45.15
26563;BME280;14217;50.986;5.826;2022-12-07T14:30:20;100912.91;;;16.69;44.52
26563;BME280;14217;50.986;5.826;2022-12-07T14:35:22;100908.59;;;16.66;44.46
26563;BME280;14217;50.986;5.826;2022-12-07T14:40:26;100897.25;;;16.62;44.43
26563;BME280;14217;50.986;5.826;2022-12-07T14:45:29;100894.94;;;16.78;44.04
26563;BME280;14217;50.986;5.826;2022-12-07T14:50:35;100880.22;;;16.70;44.28
26563;BME280;14217;50.986;5.826;2022-12-07T14:55:38;100890.94;;;16.66;44.37
26563;BME280;14217;50.986;5.826;2022-12-07T15:00:40;100883.38;;;16.56;44.65
26563;BME280;14217;50.986;5.826;2022-12-07T15:05:42;100879.94;;;16.54;44.47
26563;BME280;14217;50.986;5.826;2022-12-07T15:10:44;100883.97;;;16.64;44.16
26563;BME280;14217;50.986;5.826;2022-12-07T15:15:48;100865.34;;;16.67;44.22
26563;BME280;14217;50.986;5.826;2022-12-07T15:20:50;100862.59;;;16.70;44.67
26563;BME280;14217;50.986;5.826;2022-12-07T15:25:53;100865.78;;;16.55;45.03
26563;BME280;14217;50.986;5.826;2022-12-07T15:30:55;100867.97;;;16.67;44.55
26563;BME280;14217;50.986;5.826;2022-12-07T15:35:58;100859.41;;;16.60;44.57
26563;BME280;14217;50.986;5.826;2022-12-07T15:41:00;100859.66;;;16.53;45.20
26563;BME280;14217;50.986;5.826;2022-12-07T15:46:02;100848.66;;;16.65;44.70
26563;BME280;14217;50.986;5.826;2022-12-07T15:51:06;100858.44;;;16.63;44.75
26563;BME280;14217;50.986;5.826;2022-12-07T15:56:08;100860.97;;;16.66;44.66
26563;BME280;14217;50.986;5.826;2022-12-07T16:01:15;100865.91;;;16.52;44.97
26563;BME280;14217;50.986;5.826;2022-12-07T16:06:18;100849.91;;;16.55;44.58
26563;BME280;14217;50.986;5.826;2022-12-07T16:11:21;100859.53;;;16.57;44.60
26563;BME280;14217;50.986;5.826;2022-12-07T16:16:23;100844.31;;;16.64;44.36
26563;BME280;14217;50.986;5.826;2022-12-07T16:21:25;100843.78;;;16.78;44.20
26563;BME280;14217;50.986;5.826;2022-12-07T16:26:27;100839.88;;;16.64;44.32
26563;BME280;14217;50.986;5.826;2022-12-07T16:31:29;100840.13;;;16.82;43.82
26563;BME280;14217;50.986;5.826;2022-12-07T16:36:31;100836.38;;;16.64;44.46
26563;BME280;14217;50.986;5.826;2022-12-07T16:41:53;100842.34;;;16.69;44.28
26563;BME280;14217;50.986;5.826;2022-12-07T16:46:55;100828.47;;;16.62;44.50
26563;BME280;14217;50.986;5.826;2022-12-07T16:51:57;100830.47;;;16.56;45.70
26563;BME280;14217;50.986;5.826;2022-12-07T16:57:19;100829.09;;;16.45;45.66
26563;BME280;14217;50.986;5.826;2022-12-07T17:02:24;100836.06;;;16.72;48.48
26563;BME280;14217;50.986;5.826;2022-12-07T17:07:26;100834.13;;;16.53;47.99
26563;BME280;14217;50.986;5.826;2022-12-07T17:12:28;100837.56;;;16.55;48.14
26563;BME280;14217;50.986;5.826;2022-12-07T17:17:30;100816.22;;;16.60;46.99
26563;BME280;14217;50.986;5.826;2022-12-07T17:22:33;100817.84;;;16.64;45.39
26563;BME280;14217;50.986;5.826;2022-12-07T17:27:35;100812.94;;;16.53;44.61
26563;BME280;14217;50.986;5.826;2022-12-07T17:32:37;100813.91;;;16.51;44.06
26563;BME280;14217;50.986;5.826;2022-12-07T17:37:39;100809.72;;;16.45;44.14
26563;BME280;14217;50.986;5.826;2022-12-07T17:42:45;100805.34;;;16.44;44.45
26563;BME280;14217;50.986;5.826;2022-12-07T17:47:50;100799.81;;;16.50;44.37
26563;BME280;14217;50.986;5.826;2022-12-07T17:52:53;100800.16;;;16.41;44.69
26563;BME280;14217;50.986;5.826;2022-12-07T17:58:13;100803.28;;;16.52;44.60
26563;BME280;14217;50.986;5.826;2022-12-07T18:03:15;100787.13;;;16.60;44.26
26563;BME280;14217;50.986;5.826;2022-12-07T18:08:17;100788.16;;;16.56;44.77
26563;BME280;14217;50.986;5.826;2022-12-07T18:13:19;100792.69;;;16.52;45.16
26563;BME280;14217;50.986;5.826;2022-12-07T18:18:36;100780.19;;;16.57;45.14
26563;BME280;14217;50.986;5.826;2022-12-07T18:23:39;100773.91;;;16.60;44.88
26563;BME280;14217;50.986;5.826;2022-12-07T18:28:43;100767.91;;;16.55;45.23
26563;BME280;14217;50.986;5.826;2022-12-07T18:33:46;100774.22;;;16.51;45.52
26563;BME280;14217;50.986;5.826;2022-12-07T18:38:49;100767.78;;;16.83;44.94
26563;BME280;14217;50.986;5.826;2022-12-07T18:43:51;100768.50;;;16.63;45.35
26563;BME280;14217;50.986;5.826;2022-12-07T18:48:54;100754.69;;;16.55;45.82
26563;BME280;14217;50.986;5.826;2022-12-07T18:53:58;100761.81;;;16.53;45.44
26563;BME280;14217;50.986;5.826;2022-12-07T18:59:03;100758.13;;;16.57;45.46
26563;BME280;14217;50.986;5.826;2022-12-07T19:04:24;100763.53;;;16.77;45.02
26563;BME280;14217;50.986;5.826;2022-12-07T19:09:26;100759.75;;;16.61;45.49
26563;BME280;14217;50.986;5.826;2022-12-07T19:14:33;100748.66;;;16.51;45.79
26563;BME280;14217;50.986;5.826;2022-12-07T19:19:46;100746.06;;;16.50;45.62
26563;BME280;14217;50.986;5.826;2022-12-07T19:24:50;100749.53;;;16.52;45.20
26563;BME280;14217;50.986;5.826;2022-12-07T19:29:52;100756.44;;;16.56;44.96
26563;BME280;14217;50.986;5.826;2022-12-07T19:34:54;100751.09;;;16.57;44.84
26563;BME280;14217;50.986;5.826;2022-12-07T19:39:57;100733.44;;;16.58;44.70
26563;BME280;14217;50.986;5.826;2022-12-07T19:44:59;100731.59;;;16.60;44.54
26563;BME280;14217;50.986;5.826;2022-12-07T19:50:01;100738.66;;;16.59;44.71
26563;BME280;14217;50.986;5.826;2022-12-07T19:55:03;100734.28;;;16.58;44.78
26563;BME280;14217;50.986;5.826;2022-12-07T20:00:07;100728.81;;;16.63;44.57
26563;BME280;14217;50.986;5.826;2022-12-07T20:05:09;100724.78;;;16.76;44.38
26563;BME280;14217;50.986;5.826;2022-12-07T20:10:11;100724.41;;;16.87;43.79
26563;BME280;14217;50.986;5.826;2022-12-07T20:15:13;100725.66;;;16.77;44.13
26563;BME280;14217;50.986;5.826;2022-12-07T20:20:15;100714.84;;;16.59;44.98
26563;BME280;14217;50.986;5.826;2022-12-07T20:25:17;100722.19;;;16.75;44.93
26563;BME280;14217;50.986;5.826;2022-12-07T20:30:20;100717.50;;;17.05;44.08
26563;BME280;14217;50.986;5.826;2022-12-07T20:35:22;100703.03;;;17.14;43.88
26563;BME280;14217;50.986;5.826;2022-12-07T20:40:24;100703.03;;;17.14;43.52
26563;BME280;14217;50.986;5.826;2022-12-07T20:45:26;100706.41;;;17.17;43.45
26563;BME280;14217;50.986;5.826;2022-12-07T20:50:28;100702.84;;;17.18;43.51
26563;BME280;14217;50.986;5.826;2022-12-07T20:55:30;100695.53;;;17.25;43.21
26563;BME280;14217;50.986;5.826;2022-12-07T21:00:34;100691.38;;;17.18;43.27
26563;BME280;14217;50.986;5.826;2022-12-07T21:05:36;100684.38;;;17.17;43.20
26563;BME280;14217;50.986;5.826;2022-12-07T21:10:38;100682.78;;;17.13;43.00
26563;BME280;14217;50.986;5.826;2022-12-07T21:15:40;100684.25;;;17.20;43.03
26563;BME280;14217;50.986;5.826;2022-12-07T21:20:42;100682.38;;;17.22;42.69
26563;BME280;14217;50.986;5.826;2022-12-07T21:25:44;100682.63;;;17.16;42.86
26563;BME280;14217;50.986;5.826;2022-12-07T21:30:46;100672.38;;;17.08;42.84
26563;BME280;14217;50.986;5.826;2022-12-07T21:36:10;100664.06;;;17.17;42.63
26563;BME280;14217;50.986;5.826;2022-12-07T21:41:21;100660.00;;;17.09;42.70
26563;BME280;14217;50.986;5.826;2022-12-07T21:46:25;100665.25;;;17.10;42.82
26563;BME280;14217;50.986;5.826;2022-12-07T21:51:34;100652.25;;;17.04;43.09
26563;BME280;14217;50.986;5.826;2022-12-07T21:56:39;100653.34;;;17.20;42.50
26563;BME280;14217;50.986;5.826;2022-12-07T22:01:43;100651.75;;;17.16;42.70
26563;BME280;14217;50.986;5.826;2022-12-07T22:06:48;100649.16;;;17.15;42.62
26563;BME280;14217;50.986;5.826;2022-12-07T22:11:50;100661.47;;;17.16;42.62
26563;BME280;14217;50.986;5.826;2022-12-07T22:16:52;100659.69;;;17.16;42.58
26563;BME280;14217;50.986;5.826;2022-12-07T22:21:54;100653.47;;;17.17;42.63
26563;BME280;14217;50.986;5.826;2022-12-07T22:26:56;100645.53;;;17.17;42.42
26563;BME280;14217;50.986;5.826;2022-12-07T22:31:59;100642.03;;;17.17;42.45
26563;BME280;14217;50.986;5.826;2022-12-07T22:37:19;100633.47;;;17.10;42.80
26563;BME280;14217;50.986;5.826;2022-12-07T22:42:21;100630.69;;;17.13;42.66
26563;BME280;14217;50.986;5.826;2022-12-07T22:47:23;100630.09;;;17.06;42.64
26563;BME280;14217;50.986;5.826;2022-12-07T22:52:25;100631.13;;;17.02;43.01
26563;BME280;14217;50.986;5.826;2022-12-07T22:57:28;100618.66;;;17.06;42.79
26563;BME280;14217;50.986;5.826;2022-12-07T23:02:30;100604.66;;;17.02;43.00
26563;BME280;14217;50.986;5.826;2022-12-07T23:07:32;100603.63;;;17.06;42.64
26563;BME280;14217;50.986;5.826;2022-12-07T23:12:35;100594.69;;;17.09;42.78
26563;BME280;14217;50.986;5.826;2022-12-07T23:17:55;100586.78;;;17.07;42.78
26563;BME280;14217;50.986;5.826;2022-12-07T23:22:57;100586.75;;;17.09;42.73
26563;BME280;14217;50.986;5.826;2022-12-07T23:27:59;100578.59;;;17.14;42.84
26563;BME280;14217;50.986;5.826;2022-12-07T23:33:01;100570.06;;;17.07;42.75
26563;BME280;14217;50.986;5.826;2022-12-07T23:38:03;100563.06;;;17.06;42.73
26563;BME280;14217;50.986;5.826;2022-12-07T23:43:05;100558.47;;;17.10;42.79
26563;BME280;14217;50.986;5.826;2022-12-07T23:48:07;100555.97;;;17.06;42.88
26563;BME280;14217;50.986;5.826;2022-12-07T23:53:09;100544.53;;;17.06;42.68
26563;BME280;14217;50.986;5.826;2022-12-07T23:58:11;100543.06;;;16.99;43.04
